sensor_id;sensor_type;location;lat;lon;timestamp;temperature;humidity
851;DHT22;412;51.400;7.480;2024-03-22T00:01:46;14.30;99.90
851;DHT22;412;51.400;7.480;2024-03-22T00:04:12;14.30;99.90
851;DHT22;412;51.400;7.480;2024-03-22T00:06:38;14.30;99.90
851;DHT22;412;51.400;7.480;2024-03-22T00:09:04;14.30;99.90
851;DHT22;412;51.400;7.480;2024-03-22T00:11:30;14.20;99.90
851;DHT22;412;51.400;7.480;2024-03-22T00:13:56;14.20;99.90
851;DHT22;412;51.400;7.480;2024-03-22T00:16:22;14.20;99.90
851;DHT22;412;51.400;7.480;2024-03-22T00:18:48;14.20;99.90
851;DHT22;412;51.400;7.480;2024-03-22T00:21:13;14.20;99.90
851;DHT22;412;51.400;7.480;2024-03-22T00:23:39;14.20;99.90
851;DHT22;412;51.400;7.480;2024-03-22T00:26:05;14.10;99.90
851;DHT22;412;51.400;7.480;2024-03-22T00:28:31;14.10;99.90
851;DHT22;412;51.400;7.480;2024-03-22T00:30:56;14.10;99.90
851;DHT22;412;51.400;7.480;2024-03-22T00:33:22;14.10;99.90
851;DHT22;412;51.400;7.480;2024-03-22T00:35:48;14.10;99.90
851;DHT22;412;51.400;7.480;2024-03-22T00:38:13;14.10;99.90
851;DHT22;412;51.400;7.480;2024-03-22T00:40:39;14.10;99.90
851;DHT22;412;51.400;7.480;2024-03-22T00:43:05;14.10;99.90
851;DHT22;412;51.400;7.480;2024-03-22T00:45:31;14.10;99.90
851;DHT22;412;51.400;7.480;2024-03-22T00:47:57;14.10;99.90
851;DHT22;412;51.400;7.480;2024-03-22T00:50:23;14.10;99.90
851;DHT22;412;51.400;7.480;2024-03-22T00:52:50;14.10;99.90
851;DHT22;412;51.400;7.480;2024-03-22T00:55:16;14.10;99.90
851;DHT22;412;51.400;7.480;2024-03-22T00:57:42;14.10;99.90
851;DHT22;412;51.400;7.480;2024-03-22T01:00:08;14.10;99.90
851;DHT22;412;51.400;7.480;2024-03-22T01:02:34;14.00;99.90
851;DHT22;412;51.400;7.480;2024-03-22T01:05:00;14.00;99.90
851;DHT22;412;51.400;7.480;2024-03-22T01:07:26;14.00;99.90
851;DHT22;412;51.400;7.480;2024-03-22T01:09:52;14.10;99.90
851;DHT22;412;51.400;7.480;2024-03-22T01:12:17;14.10;99.90
851;DHT22;412;51.400;7.480;2024-03-22T01:14:43;14.10;99.90
851;DHT22;412;51.400;7.480;2024-03-22T01:17:09;14.10;99.90
851;DHT22;412;51.400;7.480;2024-03-22T01:19:34;14.10;99.90
851;DHT22;412;51.400;7.480;2024-03-22T01:22:00;14.10;99.90
851;DHT22;412;51.400;7.480;2024-03-22T01:24:26;14.20;99.90
851;DHT22;412;51.400;7.480;2024-03-22T01:26:52;14.20;99.90
851;DHT22;412;51.400;7.480;2024-03-22T01:29:17;14.20;99.90
851;DHT22;412;51.400;7.480;2024-03-22T01:31:43;14.20;99.90
851;DHT22;412;51.400;7.480;2024-03-22T01:34:09;14.20;99.90
851;DHT22;412;51.400;7.480;2024-03-22T01:36:34;14.20;99.90
851;DHT22;412;51.400;7.480;2024-03-22T01:39:00;14.20;99.90
851;DHT22;412;51.400;7.480;2024-03-22T01:41:26;14.20;99.90
851;DHT22;412;51.400;7.480;2024-03-22T01:43:52;14.20;99.90
851;DHT22;412;51.400;7.480;2024-03-22T01:46:18;14.20;99.90
851;DHT22;412;51.400;7.480;2024-03-22T01:48:44;14.30;99.90
851;DHT22;412;51.400;7.480;2024-03-22T01:51:10;14.30;99.90
851;DHT22;412;51.400;7.480;2024-03-22T01:53:37;14.30;99.90
851;DHT22;412;51.400;7.480;2024-03-22T01:56:03;14.30;99.90
851;DHT22;412;51.400;7.480;2024-03-22T01:58:29;14.40;99.90
851;DHT22;412;51.400;7.480;2024-03-22T02:00:55;14.40;99.90
851;DHT22;412;51.400;7.480;2024-03-22T02:03:21;14.40;99.90
851;DHT22;412;51.400;7.480;2024-03-22T02:05:47;14.40;99.90
851;DHT22;412;51.400;7.480;2024-03-22T02:08:13;14.40;99.90
851;DHT22;412;51.400;7.480;2024-03-22T02:10:38;14.40;99.90
851;DHT22;412;51.400;7.480;2024-03-22T02:13:04;14.40;99.90
851;DHT22;412;51.400;7.480;2024-03-22T02:15:30;14.40;99.90
851;DHT22;412;51.400;7.480;2024-03-22T02:17:56;14.40;99.90
851;DHT22;412;51.400;7.480;2024-03-22T02:20:22;14.40;99.90
851;DHT22;412;51.400;7.480;2024-03-22T02:22:48;14.40;99.90
851;DHT22;412;51.400;7.480;2024-03-22T02:25:13;14.40;99.90
851;DHT22;412;51.400;7.480;2024-03-22T02:27:39;14.40;99.90
851;DHT22;412;51.400;7.480;2024-03-22T02:30:05;14.40;99.90
851;DHT22;412;51.400;7.480;2024-03-22T02:32:31;14.40;99.90
851;DHT22;412;51.400;7.480;2024-03-22T02:34:57;14.40;99.90
851;DHT22;412;51.400;7.480;2024-03-22T02:37:23;14.40;99.90
851;DHT22;412;51.400;7.480;2024-03-22T02:39:48;14.40;99.90
851;DHT22;412;51.400;7.480;2024-03-22T02:42:14;14.40;99.90
851;DHT22;412;51.400;7.480;2024-03-22T02:44:40;14.50;99.90
851;DHT22;412;51.400;7.480;2024-03-22T02:47:11;14.50;99.90
851;DHT22;412;51.400;7.480;2024-03-22T02:49:40;14.60;99.90
851;DHT22;412;51.400;7.480;2024-03-22T02:52:05;14.60;99.90
851;DHT22;412;51.400;7.480;2024-03-22T02:54:31;14.50;99.90
851;DHT22;412;51.400;7.480;2024-03-22T02:56:57;14.60;99.90
851;DHT22;412;51.400;7.480;2024-03-22T02:59:26;14.60;99.90
851;DHT22;412;51.400;7.480;2024-03-22T03:01:52;14.60;99.90
851;DHT22;412;51.400;7.480;2024-03-22T03:04:18;14.60;99.90
851;DHT22;412;51.400;7.480;2024-03-22T03:06:43;14.60;99.90
851;DHT22;412;51.400;7.480;2024-03-22T03:09:11;14.60;99.90
851;DHT22;412;51.400;7.480;2024-03-22T03:11:40;14.60;99.90
851;DHT22;412;51.400;7.480;2024-03-22T03:14:06;14.60;99.90
851;DHT22;412;51.400;7.480;2024-03-22T03:16:32;14.60;99.90
851;DHT22;412;51.400;7.480;2024-03-22T03:18:57;14.60;99.90
851;DHT22;412;51.400;7.480;2024-03-22T03:21:23;14.60;99.90
851;DHT22;412;51.400;7.480;2024-03-22T03:23:49;14.60;99.90
851;DHT22;412;51.400;7.480;2024-03-22T03:26:14;14.60;99.90
851;DHT22;412;51.400;7.480;2024-03-22T03:28:40;14.60;99.90
851;DHT22;412;51.400;7.480;2024-03-22T03:31:06;14.60;99.90
851;DHT22;412;51.400;7.480;2024-03-22T03:33:31;14.60;99.90
851;DHT22;412;51.400;7.480;2024-03-22T03:35:57;14.60;99.90
851;DHT22;412;51.400;7.480;2024-03-22T03:38:23;14.60;99.90
851;DHT22;412;51.400;7.480;2024-03-22T03:40:49;14.60;99.90
851;DHT22;412;51.400;7.480;2024-03-22T03:43:14;14.70;99.90
851;DHT22;412;51.400;7.480;2024-03-22T03:45:43;14.70;99.90
851;DHT22;412;51.400;7.480;2024-03-22T03:48:08;14.70;99.90
851;DHT22;412;51.400;7.480;2024-03-22T03:50:34;14.70;99.90
851;DHT22;412;51.400;7.480;2024-03-22T03:53:00;14.60;99.90
851;DHT22;412;51.400;7.480;2024-03-22T03:55:26;14.60;99.90
851;DHT22;412;51.400;7.480;2024-03-22T03:57:52;14.60;99.90
851;DHT22;412;51.400;7.480;2024-03-22T04:00:19;14.60;99.90
851;DHT22;412;51.400;7.480;2024-03-22T04:02:45;14.70;99.90
851;DHT22;412;51.400;7.480;2024-03-22T04:05:11;14.60;99.90
851;DHT22;412;51.400;7.480;2024-03-22T04:07:37;14.60;99.90
851;DHT22;412;51.400;7.480;2024-03-22T04:10:05;14.60;99.90
851;DHT22;412;51.400;7.480;2024-03-22T04:12:31;14.60;99.90
851;DHT22;412;51.400;7.480;2024-03-22T04:14:57;14.60;99.90
851;DHT22;412;51.400;7.480;2024-03-22T04:17:23;14.60;99.90
851;DHT22;412;51.400;7.480;2024-03-22T04:19:49;14.60;99.90
851;DHT22;412;51.400;7.480;2024-03-22T04:22:15;14.50;99.90
851;DHT22;412;51.400;7.480;2024-03-22T04:24:41;14.50;99.90
851;DHT22;412;51.400;7.480;2024-03-22T04:27:06;14.50;99.90
851;DHT22;412;51.400;7.480;2024-03-22T04:29:33;14.40;99.90
851;DHT22;412;51.400;7.480;2024-03-22T04:31:59;14.40;99.90
851;DHT22;412;51.400;7.480;2024-03-22T04:34:24;14.30;99.90
851;DHT22;412;51.400;7.480;2024-03-22T04:36:50;14.20;99.90
851;DHT22;412;51.400;7.480;2024-03-22T04:39:19;14.20;99.90
851;DHT22;412;51.400;7.480;2024-03-22T04:41:45;14.20;99.90
851;DHT22;412;51.400;7.480;2024-03-22T04:44:11;14.20;99.90
851;DHT22;412;51.400;7.480;2024-03-22T04:46:37;14.20;99.90
851;DHT22;412;51.400;7.480;2024-03-22T04:49:02;14.20;99.90
851;DHT22;412;51.400;7.480;2024-03-22T04:51:28;14.20;99.90
851;DHT22;412;51.400;7.480;2024-03-22T04:53:54;14.20;99.90
851;DHT22;412;51.400;7.480;2024-03-22T04:56:19;14.10;99.90
851;DHT22;412;51.400;7.480;2024-03-22T04:58:45;14.10;99.90
851;DHT22;412;51.400;7.480;2024-03-22T05:01:11;14.10;99.90
851;DHT22;412;51.400;7.480;2024-03-22T05:03:38;14.10;99.90
851;DHT22;412;51.400;7.480;2024-03-22T05:06:04;14.10;99.90
851;DHT22;412;51.400;7.480;2024-03-22T05:08:32;14.20;99.90
851;DHT22;412;51.400;7.480;2024-03-22T05:10:58;14.20;99.90
851;DHT22;412;51.400;7.480;2024-03-22T05:13:23;14.20;99.90
851;DHT22;412;51.400;7.480;2024-03-22T05:15:49;14.30;99.90
851;DHT22;412;51.400;7.480;2024-03-22T05:18:15;14.30;99.90
851;DHT22;412;51.400;7.480;2024-03-22T05:20:40;14.30;99.90
851;DHT22;412;51.400;7.480;2024-03-22T05:23:06;14.20;99.90
851;DHT22;412;51.400;7.480;2024-03-22T05:25:32;14.10;99.90
851;DHT22;412;51.400;7.480;2024-03-22T05:27:58;14.10;99.90
851;DHT22;412;51.400;7.480;2024-03-22T05:30:23;14.10;99.90
851;DHT22;412;51.400;7.480;2024-03-22T05:32:49;14.20;99.90
851;DHT22;412;51.400;7.480;2024-03-22T05:35:16;14.30;99.90
851;DHT22;412;51.400;7.480;2024-03-22T05:37:41;14.20;99.90
851;DHT22;412;51.400;7.480;2024-03-22T05:40:08;14.10;99.90
851;DHT22;412;51.400;7.480;2024-03-22T05:42:34;14.10;99.90
851;DHT22;412;51.400;7.480;2024-03-22T05:45:00;14.10;99.90
851;DHT22;412;51.400;7.480;2024-03-22T05:47:26;14.10;99.90
851;DHT22;412;51.400;7.480;2024-03-22T05:49:52;14.10;99.90
851;DHT22;412;51.400;7.480;2024-03-22T05:52:18;14.10;99.90
851;DHT22;412;51.400;7.480;2024-03-22T05:54:44;14.10;99.90
851;DHT22;412;51.400;7.480;2024-03-22T05:57:10;14.10;99.90
851;DHT22;412;51.400;7.480;2024-03-22T05:59:36;14.10;99.90
851;DHT22;412;51.400;7.480;2024-03-22T06:02:02;14.20;99.90
851;DHT22;412;51.400;7.480;2024-03-22T06:04:28;14.30;99.90
851;DHT22;412;51.400;7.480;2024-03-22T06:06:54;14.30;99.90
851;DHT22;412;51.400;7.480;2024-03-22T06:09:19;14.30;99.90
851;DHT22;412;51.400;7.480;2024-03-22T06:12:06;14.20;99.90
851;DHT22;412;51.400;7.480;2024-03-22T06:14:33;14.30;99.90
851;DHT22;412;51.400;7.480;2024-03-22T06:16:58;14.40;99.90
851;DHT22;412;51.400;7.480;2024-03-22T06:19:24;14.40;99.90
851;DHT22;412;51.400;7.480;2024-03-22T06:21:50;14.50;99.90
851;DHT22;412;51.400;7.480;2024-03-22T06:24:16;14.50;99.90
851;DHT22;412;51.400;7.480;2024-03-22T06:26:41;14.50;99.90
851;DHT22;412;51.400;7.480;2024-03-22T06:29:07;14.60;99.90
851;DHT22;412;51.400;7.480;2024-03-22T06:31:33;14.60;99.90
851;DHT22;412;51.400;7.480;2024-03-22T06:33:59;14.60;99.90
851;DHT22;412;51.400;7.480;2024-03-22T06:36:31;14.60;99.90
851;DHT22;412;51.400;7.480;2024-03-22T06:39:00;14.50;99.90
851;DHT22;412;51.400;7.480;2024-03-22T06:41:27;14.50;99.90
851;DHT22;412;51.400;7.480;2024-03-22T06:43:53;14.50;99.90
851;DHT22;412;51.400;7.480;2024-03-22T06:46:19;14.60;99.90
851;DHT22;412;51.400;7.480;2024-03-22T06:48:45;14.60;99.90
851;DHT22;412;51.400;7.480;2024-03-22T06:51:12;14.60;99.90
851;DHT22;412;51.400;7.480;2024-03-22T06:53:37;14.60;99.90
851;DHT22;412;51.400;7.480;2024-03-22T06:56:04;14.60;99.90
851;DHT22;412;51.400;7.480;2024-03-22T06:58:30;14.60;99.90
851;DHT22;412;51.400;7.480;2024-03-22T07:00:55;14.70;99.90
851;DHT22;412;51.400;7.480;2024-03-22T07:03:21;14.70;99.90
851;DHT22;412;51.400;7.480;2024-03-22T07:05:47;14.70;99.90
851;DHT22;412;51.400;7.480;2024-03-22T07:08:13;14.80;99.90
851;DHT22;412;51.400;7.480;2024-03-22T07:10:39;14.80;99.90
851;DHT22;412;51.400;7.480;2024-03-22T07:13:05;14.80;99.90
851;DHT22;412;51.400;7.480;2024-03-22T07:15:31;14.80;99.90
851;DHT22;412;51.400;7.480;2024-03-22T07:17:58;14.80;99.90
851;DHT22;412;51.400;7.480;2024-03-22T07:20:25;14.80;99.90
851;DHT22;412;51.400;7.480;2024-03-22T07:22:51;14.80;99.90
851;DHT22;412;51.400;7.480;2024-03-22T07:25:16;14.90;99.90
851;DHT22;412;51.400;7.480;2024-03-22T07:27:42;14.90;99.90
851;DHT22;412;51.400;7.480;2024-03-22T07:30:08;14.90;99.90
851;DHT22;412;51.400;7.480;2024-03-22T07:32:34;14.90;99.90
851;DHT22;412;51.400;7.480;2024-03-22T07:35:00;14.90;99.90
851;DHT22;412;51.400;7.480;2024-03-22T07:37:25;14.90;99.90
851;DHT22;412;51.400;7.480;2024-03-22T07:39:51;14.90;99.90
851;DHT22;412;51.400;7.480;2024-03-22T07:42:17;14.90;99.90
851;DHT22;412;51.400;7.480;2024-03-22T07:44:43;14.90;99.90
851;DHT22;412;51.400;7.480;2024-03-22T07:47:08;14.90;99.90
851;DHT22;412;51.400;7.480;2024-03-22T07:49:34;15.00;99.90
851;DHT22;412;51.400;7.480;2024-03-22T07:52:02;15.10;99.90
851;DHT22;412;51.400;7.480;2024-03-22T07:54:28;15.10;99.90
851;DHT22;412;51.400;7.480;2024-03-22T07:56:53;15.20;99.90
851;DHT22;412;51.400;7.480;2024-03-22T07:59:19;15.20;99.90
851;DHT22;412;51.400;7.480;2024-03-22T08:01:45;15.30;99.90
851;DHT22;412;51.400;7.480;2024-03-22T08:04:10;15.40;99.90
851;DHT22;412;51.400;7.480;2024-03-22T08:06:36;15.40;99.90
851;DHT22;412;51.400;7.480;2024-03-22T08:09:02;15.40;99.90
851;DHT22;412;51.400;7.480;2024-03-22T08:11:28;15.50;99.90
851;DHT22;412;51.400;7.480;2024-03-22T08:13:54;15.50;99.90
851;DHT22;412;51.400;7.480;2024-03-22T08:16:27;15.60;99.90
851;DHT22;412;51.400;7.480;2024-03-22T08:18:53;15.60;99.90
851;DHT22;412;51.400;7.480;2024-03-22T08:21:19;15.60;99.90
851;DHT22;412;51.400;7.480;2024-03-22T08:23:45;15.60;99.90
851;DHT22;412;51.400;7.480;2024-03-22T08:26:10;15.70;99.90
851;DHT22;412;51.400;7.480;2024-03-22T08:28:36;15.70;99.90
851;DHT22;412;51.400;7.480;2024-03-22T08:31:06;15.60;99.90
851;DHT22;412;51.400;7.480;2024-03-22T08:33:32;15.60;99.90
851;DHT22;412;51.400;7.480;2024-03-22T08:35:58;15.70;99.90
851;DHT22;412;51.400;7.480;2024-03-22T08:38:24;15.70;99.90
851;DHT22;412;51.400;7.480;2024-03-22T08:40:50;15.70;99.90
851;DHT22;412;51.400;7.480;2024-03-22T08:43:16;15.80;99.90
851;DHT22;412;51.400;7.480;2024-03-22T08:45:42;15.90;99.90
851;DHT22;412;51.400;7.480;2024-03-22T08:48:07;16.00;99.90
851;DHT22;412;51.400;7.480;2024-03-22T08:50:34;16.10;99.90
851;DHT22;412;51.400;7.480;2024-03-22T08:53:00;16.20;99.90
851;DHT22;412;51.400;7.480;2024-03-22T08:55:29;16.30;99.90
851;DHT22;412;51.400;7.480;2024-03-22T08:57:54;16.40;99.90
851;DHT22;412;51.400;7.480;2024-03-22T09:00:20;16.60;99.90
851;DHT22;412;51.400;7.480;2024-03-22T09:02:46;16.80;99.90
851;DHT22;412;51.400;7.480;2024-03-22T09:05:12;16.80;99.90
851;DHT22;412;51.400;7.480;2024-03-22T09:07:38;16.90;99.90
851;DHT22;412;51.400;7.480;2024-03-22T09:10:05;16.80;99.90
851;DHT22;412;51.400;7.480;2024-03-22T09:12:31;16.70;99.90
851;DHT22;412;51.400;7.480;2024-03-22T09:14:57;16.70;99.90
851;DHT22;412;51.400;7.480;2024-03-22T09:17:23;16.70;99.90
851;DHT22;412;51.400;7.480;2024-03-22T09:19:49;16.50;99.90
851;DHT22;412;51.400;7.480;2024-03-22T09:22:14;16.50;99.90
851;DHT22;412;51.400;7.480;2024-03-22T09:24:40;16.60;99.90
851;DHT22;412;51.400;7.480;2024-03-22T09:27:06;16.70;99.90
851;DHT22;412;51.400;7.480;2024-03-22T09:29:38;16.90;99.90
851;DHT22;412;51.400;7.480;2024-03-22T09:32:04;16.80;99.90
851;DHT22;412;51.400;7.480;2024-03-22T09:34:30;16.90;99.90
851;DHT22;412;51.400;7.480;2024-03-22T09:36:57;16.90;99.90
851;DHT22;412;51.400;7.480;2024-03-22T09:39:23;17.00;99.90
851;DHT22;412;51.400;7.480;2024-03-22T09:41:50;17.10;99.90
851;DHT22;412;51.400;7.480;2024-03-22T09:44:19;17.20;99.90
851;DHT22;412;51.400;7.480;2024-03-22T09:46:47;17.30;95.70
851;DHT22;412;51.400;7.480;2024-03-22T09:49:13;17.30;94.10
851;DHT22;412;51.400;7.480;2024-03-22T09:51:43;17.30;93.40
851;DHT22;412;51.400;7.480;2024-03-22T09:54:10;17.30;92.30
851;DHT22;412;51.400;7.480;2024-03-22T09:56:38;17.30;93.50
851;DHT22;412;51.400;7.480;2024-03-22T09:59:05;17.20;93.40
851;DHT22;412;51.400;7.480;2024-03-22T10:01:33;17.20;93.30
851;DHT22;412;51.400;7.480;2024-03-22T10:04:00;17.10;91.80
851;DHT22;412;51.400;7.480;2024-03-22T10:06:26;17.10;92.40
851;DHT22;412;51.400;7.480;2024-03-22T10:08:51;17.10;93.60
851;DHT22;412;51.400;7.480;2024-03-22T10:11:17;17.20;93.40
851;DHT22;412;51.400;7.480;2024-03-22T10:13:43;17.20;93.50
851;DHT22;412;51.400;7.480;2024-03-22T10:16:10;17.10;93.00
851;DHT22;412;51.400;7.480;2024-03-22T10:18:36;17.10;92.70
851;DHT22;412;51.400;7.480;2024-03-22T10:21:05;17.10;92.60
851;DHT22;412;51.400;7.480;2024-03-22T10:23:31;17.10;92.50
851;DHT22;412;51.400;7.480;2024-03-22T10:25:58;17.00;92.90
851;DHT22;412;51.400;7.480;2024-03-22T10:28:27;17.10;93.20
851;DHT22;412;51.400;7.480;2024-03-22T10:30:54;17.10;92.40
851;DHT22;412;51.400;7.480;2024-03-22T10:33:20;17.10;92.90
851;DHT22;412;51.400;7.480;2024-03-22T10:35:51;17.10;92.70
851;DHT22;412;51.400;7.480;2024-03-22T10:38:19;17.10;93.40
851;DHT22;412;51.400;7.480;2024-03-22T10:40:45;17.10;92.90
851;DHT22;412;51.400;7.480;2024-03-22T10:43:15;17.10;92.60
851;DHT22;412;51.400;7.480;2024-03-22T10:45:42;17.10;93.00
851;DHT22;412;51.400;7.480;2024-03-22T10:48:12;17.20;93.70
851;DHT22;412;51.400;7.480;2024-03-22T10:50:39;17.20;94.00
851;DHT22;412;51.400;7.480;2024-03-22T10:53:09;17.20;94.30
851;DHT22;412;51.400;7.480;2024-03-22T10:55:42;17.20;93.90
851;DHT22;412;51.400;7.480;2024-03-22T10:58:20;17.20;93.70
851;DHT22;412;51.400;7.480;2024-03-22T11:00:46;17.20;93.70
851;DHT22;412;51.400;7.480;2024-03-22T11:03:13;17.10;93.90
851;DHT22;412;51.400;7.480;2024-03-22T11:05:46;17.10;93.20
851;DHT22;412;51.400;7.480;2024-03-22T11:08:11;17.00;93.80
851;DHT22;412;51.400;7.480;2024-03-22T11:10:37;17.10;93.70
851;DHT22;412;51.400;7.480;2024-03-22T11:13:04;17.10;93.40
851;DHT22;412;51.400;7.480;2024-03-22T11:15:31;17.10;93.50
851;DHT22;412;51.400;7.480;2024-03-22T11:17:57;17.10;93.00
851;DHT22;412;51.400;7.480;2024-03-22T11:20:23;17.00;93.10
851;DHT22;412;51.400;7.480;2024-03-22T11:22:51;17.00;93.20
851;DHT22;412;51.400;7.480;2024-03-22T11:25:18;17.00;92.90
851;DHT22;412;51.400;7.480;2024-03-22T11:27:45;16.90;92.70
851;DHT22;412;51.400;7.480;2024-03-22T11:30:11;16.90;93.90
851;DHT22;412;51.400;7.480;2024-03-22T11:32:36;16.90;92.80
851;DHT22;412;51.400;7.480;2024-03-22T11:35:11;16.90;92.70
851;DHT22;412;51.400;7.480;2024-03-22T11:37:39;16.90;93.20
851;DHT22;412;51.400;7.480;2024-03-22T11:40:05;16.90;93.00
851;DHT22;412;51.400;7.480;2024-03-22T11:42:34;16.90;91.00
851;DHT22;412;51.400;7.480;2024-03-22T11:45:01;16.90;90.30
851;DHT22;412;51.400;7.480;2024-03-22T11:47:27;17.00;90.30
851;DHT22;412;51.400;7.480;2024-03-22T11:49:55;17.00;90.20
851;DHT22;412;51.400;7.480;2024-03-22T11:52:25;17.00;90.90
851;DHT22;412;51.400;7.480;2024-03-22T11:54:52;17.10;91.30
851;DHT22;412;51.400;7.480;2024-03-22T11:57:20;17.20;91.10
851;DHT22;412;51.400;7.480;2024-03-22T11:59:45;17.40;92.20
851;DHT22;412;51.400;7.480;2024-03-22T12:02:11;17.60;92.20
851;DHT22;412;51.400;7.480;2024-03-22T12:04:47;17.70;92.00
851;DHT22;412;51.400;7.480;2024-03-22T12:07:14;17.90;91.70
851;DHT22;412;51.400;7.480;2024-03-22T12:09:41;18.00;89.90
851;DHT22;412;51.400;7.480;2024-03-22T12:12:08;18.00;90.20
851;DHT22;412;51.400;7.480;2024-03-22T12:14:35;18.00;90.40
851;DHT22;412;51.400;7.480;2024-03-22T12:17:02;18.00;90.20
851;DHT22;412;51.400;7.480;2024-03-22T12:19:28;17.90;91.30
851;DHT22;412;51.400;7.480;2024-03-22T12:21:53;17.80;91.90
851;DHT22;412;51.400;7.480;2024-03-22T12:24:19;17.70;92.10
851;DHT22;412;51.400;7.480;2024-03-22T12:26:45;17.70;93.50
851;DHT22;412;51.400;7.480;2024-03-22T12:29:12;17.70;93.20
851;DHT22;412;51.400;7.480;2024-03-22T12:31:38;17.60;92.50
851;DHT22;412;51.400;7.480;2024-03-22T12:34:04;17.60;93.70
851;DHT22;412;51.400;7.480;2024-03-22T12:36:30;17.60;93.90
851;DHT22;412;51.400;7.480;2024-03-22T12:38:56;17.60;93.70
851;DHT22;412;51.400;7.480;2024-03-22T12:41:22;17.60;93.80
851;DHT22;412;51.400;7.480;2024-03-22T12:43:47;17.60;94.70
851;DHT22;412;51.400;7.480;2024-03-22T12:46:13;17.50;95.00
851;DHT22;412;51.400;7.480;2024-03-22T12:48:39;17.40;94.90
851;DHT22;412;51.400;7.480;2024-03-22T12:51:04;17.20;94.70
851;DHT22;412;51.400;7.480;2024-03-22T12:53:30;17.20;95.50
851;DHT22;412;51.400;7.480;2024-03-22T12:55:56;17.20;95.70
851;DHT22;412;51.400;7.480;2024-03-22T12:58:22;17.20;96.50
851;DHT22;412;51.400;7.480;2024-03-22T13:00:47;17.20;96.90
851;DHT22;412;51.400;7.480;2024-03-22T13:03:13;17.20;96.50
851;DHT22;412;51.400;7.480;2024-03-22T13:05:41;17.30;96.80
851;DHT22;412;51.400;7.480;2024-03-22T13:08:07;17.30;96.70
851;DHT22;412;51.400;7.480;2024-03-22T13:10:33;17.30;97.00
851;DHT22;412;51.400;7.480;2024-03-22T13:12:59;17.30;97.20
851;DHT22;412;51.400;7.480;2024-03-22T13:15:25;17.30;97.40
851;DHT22;412;51.400;7.480;2024-03-22T13:17:51;17.30;97.70
851;DHT22;412;51.400;7.480;2024-03-22T13:20:18;17.30;97.10
851;DHT22;412;51.400;7.480;2024-03-22T13:22:44;17.20;97.10
851;DHT22;412;51.400;7.480;2024-03-22T13:25:10;17.20;96.90
851;DHT22;412;51.400;7.480;2024-03-22T13:27:37;17.20;97.30
851;DHT22;412;51.400;7.480;2024-03-22T13:30:07;17.20;97.40
851;DHT22;412;51.400;7.480;2024-03-22T13:32:38;17.10;98.40
851;DHT22;412;51.400;7.480;2024-03-22T13:35:05;17.00;98.60
851;DHT22;412;51.400;7.480;2024-03-22T13:37:31;16.90;99.40
851;DHT22;412;51.400;7.480;2024-03-22T13:39:57;16.90;99.80
851;DHT22;412;51.400;7.480;2024-03-22T13:42:23;16.90;99.90
851;DHT22;412;51.400;7.480;2024-03-22T13:44:49;16.80;99.90
851;DHT22;412;51.400;7.480;2024-03-22T13:47:14;16.80;99.90
851;DHT22;412;51.400;7.480;2024-03-22T13:49:40;16.80;99.90
851;DHT22;412;51.400;7.480;2024-03-22T13:52:07;16.70;99.90
851;DHT22;412;51.400;7.480;2024-03-22T13:54:33;16.60;99.90
851;DHT22;412;51.400;7.480;2024-03-22T13:56:59;16.60;99.90
851;DHT22;412;51.400;7.480;2024-03-22T13:59:26;16.60;99.90
851;DHT22;412;51.400;7.480;2024-03-22T14:01:52;16.50;99.90
851;DHT22;412;51.400;7.480;2024-03-22T14:04:18;16.50;99.90
851;DHT22;412;51.400;7.480;2024-03-22T14:06:45;16.50;99.90
851;DHT22;412;51.400;7.480;2024-03-22T14:09:11;16.40;99.90
851;DHT22;412;51.400;7.480;2024-03-22T14:11:42;16.40;99.90
851;DHT22;412;51.400;7.480;2024-03-22T14:14:13;16.30;99.90
851;DHT22;412;51.400;7.480;2024-03-22T14:16:39;16.30;99.90
851;DHT22;412;51.400;7.480;2024-03-22T14:19:06;16.30;99.90
851;DHT22;412;51.400;7.480;2024-03-22T14:21:32;16.30;99.90
851;DHT22;412;51.400;7.480;2024-03-22T14:23:58;16.20;99.90
851;DHT22;412;51.400;7.480;2024-03-22T14:26:24;16.20;99.90
851;DHT22;412;51.400;7.480;2024-03-22T14:28:50;16.20;99.90
851;DHT22;412;51.400;7.480;2024-03-22T14:31:16;16.10;99.90
851;DHT22;412;51.400;7.480;2024-03-22T14:33:42;16.10;99.90
851;DHT22;412;51.400;7.480;2024-03-22T14:36:08;16.00;99.90
851;DHT22;412;51.400;7.480;2024-03-22T14:38:35;15.90;99.90
851;DHT22;412;51.400;7.480;2024-03-22T14:41:02;15.80;99.90
851;DHT22;412;51.400;7.480;2024-03-22T14:43:28;15.70;99.90
851;DHT22;412;51.400;7.480;2024-03-22T14:45:56;15.70;99.90
851;DHT22;412;51.400;7.480;2024-03-22T14:48:23;15.60;99.90
851;DHT22;412;51.400;7.480;2024-03-22T14:50:50;15.50;99.90
851;DHT22;412;51.400;7.480;2024-03-22T14:53:22;15.60;99.90
851;DHT22;412;51.400;7.480;2024-03-22T14:55:58;15.60;99.90
851;DHT22;412;51.400;7.480;2024-03-22T14:58:25;15.70;99.90
851;DHT22;412;51.400;7.480;2024-03-22T15:00:56;15.70;99.90
851;DHT22;412;51.400;7.480;2024-03-22T15:03:22;15.70;99.90
851;DHT22;412;51.400;7.480;2024-03-22T15:05:51;15.80;99.90
851;DHT22;412;51.400;7.480;2024-03-22T15:08:18;15.90;99.90
851;DHT22;412;51.400;7.480;2024-03-22T15:10:44;15.80;99.90
851;DHT22;412;51.400;7.480;2024-03-22T15:13:09;15.70;99.90
851;DHT22;412;51.400;7.480;2024-03-22T15:15:36;15.70;99.90
851;DHT22;412;51.400;7.480;2024-03-22T15:18:02;15.70;99.90
851;DHT22;412;51.400;7.480;2024-03-22T15:20:28;15.70;99.90
851;DHT22;412;51.400;7.480;2024-03-22T15:22:55;15.80;99.90
851;DHT22;412;51.400;7.480;2024-03-22T15:25:20;15.80;99.90
851;DHT22;412;51.400;7.480;2024-03-22T15:27:46;15.70;99.90
851;DHT22;412;51.400;7.480;2024-03-22T15:30:13;15.70;99.90
851;DHT22;412;51.400;7.480;2024-03-22T15:32:40;15.70;99.90
851;DHT22;412;51.400;7.480;2024-03-22T15:35:06;15.70;99.90
851;DHT22;412;51.400;7.480;2024-03-22T15:37:37;15.70;99.90
851;DHT22;412;51.400;7.480;2024-03-22T15:40:04;15.60;99.90
851;DHT22;412;51.400;7.480;2024-03-22T15:42:30;15.50;99.90
851;DHT22;412;51.400;7.480;2024-03-22T15:44:56;15.30;99.90
851;DHT22;412;51.400;7.480;2024-03-22T15:47:27;15.20;99.90
851;DHT22;412;51.400;7.480;2024-03-22T15:49:53;15.00;99.90
851;DHT22;412;51.400;7.480;2024-03-22T15:52:19;15.00;99.90
851;DHT22;412;51.400;7.480;2024-03-22T15:54:45;14.90;99.90
851;DHT22;412;51.400;7.480;2024-03-22T15:57:10;14.90;99.90
851;DHT22;412;51.400;7.480;2024-03-22T15:59:36;14.90;99.90
851;DHT22;412;51.400;7.480;2024-03-22T16:02:02;14.80;99.90
851;DHT22;412;51.400;7.480;2024-03-22T16:04:30;14.70;99.90
851;DHT22;412;51.400;7.480;2024-03-22T16:06:58;14.60;99.90
851;DHT22;412;51.400;7.480;2024-03-22T16:09:23;14.60;99.90
851;DHT22;412;51.400;7.480;2024-03-22T16:11:49;14.50;99.90
851;DHT22;412;51.400;7.480;2024-03-22T16:14:15;14.50;99.90
851;DHT22;412;51.400;7.480;2024-03-22T16:16:43;14.50;99.90
851;DHT22;412;51.400;7.480;2024-03-22T16:19:09;14.40;99.90
851;DHT22;412;51.400;7.480;2024-03-22T16:21:35;14.40;99.90
851;DHT22;412;51.400;7.480;2024-03-22T16:24:00;14.30;99.90
851;DHT22;412;51.400;7.480;2024-03-22T16:26:27;14.30;99.90
851;DHT22;412;51.400;7.480;2024-03-22T16:28:53;14.30;99.90